Time;durP1;ratioP1;P1;durP2;ratioP2;P2;SDS_P1;SDS_P2;PMS_P1;PMS_P2;Temp;Humidity;BMP_temperature;BMP_pressure;BME280_temperature;BME280_humidity;BME280_pressure;Samples;Min_cycle;Max_cycle;Signal;HPM_P1;HPM_P2
2023/10/23 00:01:40;;;;;;;6.10;4.35;;;12.00;99.90;;;;;;5036489;28;20237;-65
2023/10/23 00:04:06;;;;;;;8.15;4.38;;;12.00;99.90;;;;;;5036260;28;20523;-65
2023/10/23 00:06:33;;;;;;;5.38;4.70;;;12.00;99.90;;;;;;5036067;28;20188;-65
2023/10/23 00:08:59;;;;;;;6.68;4.38;;;12.00;99.90;;;;;;5034430;28;20202;-67
2023/10/23 00:11:27;;;;;;;4.80;4.40;;;11.90;99.90;;;;;;5036106;28;20202;-65
2023/10/23 00:13:53;;;;;;;6.55;4.28;;;11.90;99.90;;;;;;5017021;28;20183;-64
2023/10/23 00:16:19;;;;;;;5.70;4.57;;;11.90;99.90;;;;;;5036453;28;20167;-65
2023/10/23 00:18:45;;;;;;;4.60;4.20;;;11.90;99.90;;;;;;5035319;28;20262;-65
2023/10/23 00:21:12;;;;;;;5.68;5.07;;;11.90;99.90;;;;;;5035650;28;20191;-65
2023/10/23 00:23:37;;;;;;;5.20;4.70;;;11.80;99.90;;;;;;5035823;28;20171;-65
2023/10/23 00:26:05;;;;;;;5.22;4.57;;;11.90;99.90;;;;;;5034422;28;20552;-66
2023/10/23 00:28:32;;;;;;;7.38;5.80;;;11.90;99.90;;;;;;5035076;28;20218;-65
2023/10/23 00:30:58;;;;;;;8.15;5.07;;;11.90;99.90;;;;;;5017415;28;20207;-65
2023/10/23 00:33:23;;;;;;;6.10;5.30;;;11.80;99.90;;;;;;5035966;28;20179;-65
2023/10/23 00:35:49;;;;;;;6.82;4.68;;;11.90;99.90;;;;;;5035900;28;20207;-65
2023/10/23 00:38:15;;;;;;;6.55;5.10;;;11.90;99.90;;;;;;5035301;28;20602;-65
2023/10/23 00:40:41;;;;;;;5.40;4.90;;;11.90;99.90;;;;;;5033873;28;20256;-65
2023/10/23 00:43:17;;;;;;;5.85;4.97;;;11.90;99.90;;;;;;5034486;28;20198;-65
2023/10/23 00:45:51;;;;;;;5.68;5.15;;;11.90;99.90;;;;;;5035294;28;20238;-65
2023/10/23 00:48:20;;;;;;;8.35;5.63;;;11.90;99.90;;;;;;5035202;28;20178;-65
2023/10/23 00:50:47;;;;;;;7.30;5.65;;;11.90;99.90;;;;;;5017301;28;20199;-65
2023/10/23 00:53:13;;;;;;;9.15;5.40;;;11.90;99.90;;;;;;5035078;28;20206;-65
2023/10/23 00:55:40;;;;;;;5.68;5.05;;;11.90;99.90;;;;;;5035005;28;20199;-65
2023/10/23 00:58:06;;;;;;;9.60;5.30;;;11.90;99.90;;;;;;5033250;28;20179;-65
2023/10/23 01:00:33;;;;;;;6.70;5.22;;;11.90;99.90;;;;;;5034775;28;20199;-65
2023/10/23 01:03:00;;;;;;;6.00;5.32;;;12.00;99.90;;;;;;5034957;28;20167;-65
2023/10/23 01:05:25;;;;;;;6.93;5.32;;;12.00;99.90;;;;;;5035243;28;20522;-65
2023/10/23 01:07:51;;;;;;;6.28;4.82;;;12.00;99.90;;;;;;5034531;28;20190;-65
2023/10/23 01:10:17;;;;;;;6.55;5.88;;;12.00;99.90;;;;;;5017100;28;20257;-66
2023/10/23 01:12:43;;;;;;;9.63;5.78;;;12.00;99.90;;;;;;5032868;28;20191;-65
2023/10/23 01:15:09;;;;;;;7.20;5.93;;;12.00;99.90;;;;;;5034041;28;20211;-65
2023/10/23 01:17:35;;;;;;;6.30;4.88;;;11.90;99.90;;;;;;5015512;28;20187;-65
2023/10/23 01:20:01;;;;;;;8.40;5.38;;;11.90;99.90;;;;;;5035039;28;20222;-65
2023/10/23 01:22:26;;;;;;;6.88;5.45;;;11.90;99.90;;;;;;5034454;28;20179;-65
2023/10/23 01:24:52;;;;;;;6.30;5.35;;;11.90;99.90;;;;;;5034246;28;20183;-66
2023/10/23 01:27:18;;;;;;;5.88;5.15;;;11.90;99.90;;;;;;5034400;28;20207;-65
2023/10/23 01:29:44;;;;;;;5.72;5.13;;;11.90;99.90;;;;;;5033949;28;20198;-65
2023/10/23 01:32:10;;;;;;;5.78;5.13;;;11.90;99.90;;;;;;5034560;28;20191;-65
2023/10/23 01:34:36;;;;;;;6.70;4.95;;;11.90;99.90;;;;;;5031457;28;20235;-65
2023/10/23 01:37:02;;;;;;;6.93;5.32;;;11.80;99.90;;;;;;5034222;28;20194;-65
2023/10/23 01:39:28;;;;;;;5.18;4.68;;;11.80;99.90;;;;;;5034142;28;20178;-65
2023/10/23 01:41:54;;;;;;;5.60;5.00;;;11.80;99.90;;;;;;5033798;28;20240;-65
2023/10/23 01:44:19;;;;;;;6.45;5.00;;;11.80;99.90;;;;;;5033670;28;20187;-65
2023/10/23 01:46:45;;;;;;;6.35;5.70;;;11.80;99.90;;;;;;5033317;28;20581;-65
2023/10/23 01:49:11;;;;;;;6.05;5.40;;;11.80;99.90;;;;;;5034052;28;20183;-65
2023/10/23 01:51:37;;;;;;;5.65;5.05;;;11.80;99.90;;;;;;5033808;28;20191;-65
2023/10/23 01:54:03;;;;;;;8.93;6.05;;;11.80;99.90;;;;;;5032406;28;20210;-65
2023/10/23 01:56:28;;;;;;;6.28;5.47;;;11.80;99.90;;;;;;5028656;28;20254;-65
2023/10/23 01:58:54;;;;;;;6.45;5.65;;;11.90;99.90;;;;;;5024887;28;20194;-65
2023/10/23 02:01:23;;;;;;;6.82;6.13;;;11.90;99.90;;;;;;5033664;28;20207;-65
2023/10/23 02:03:50;;;;;;;6.50;5.90;;;11.90;99.90;;;;;;5033831;28;20562;-65
2023/10/23 02:06:16;;;;;;;6.32;5.30;;;11.90;99.90;;;;;;5033745;28;20547;-65
2023/10/23 02:08:42;;;;;;;14.45;6.50;;;12.00;99.90;;;;;;5033598;28;20636;-65
2023/10/23 02:11:08;;;;;;;11.57;6.97;;;11.90;99.90;;;;;;5032368;28;20206;-65
2023/10/23 02:13:34;;;;;;;10.63;6.50;;;11.90;99.90;;;;;;5033032;28;20179;-65
2023/10/23 02:16:00;;;;;;;12.32;7.07;;;11.90;99.90;;;;;;5033794;28;20206;-66
2023/10/23 02:18:26;;;;;;;10.20;5.95;;;11.90;99.90;;;;;;5033798;28;20175;-65
2023/10/23 02:20:52;;;;;;;8.68;6.20;;;11.90;99.90;;;;;;5033379;28;20786;-65
2023/10/23 02:23:18;;;;;;;7.00;5.63;;;11.90;99.90;;;;;;5033518;28;20186;-65
2023/10/23 02:25:44;;;;;;;9.85;6.38;;;11.90;99.90;;;;;;5011452;28;20253;-65
2023/10/23 02:28:09;;;;;;;7.70;6.35;;;11.90;99.90;;;;;;5028898;28;20215;-65
2023/10/23 02:30:39;;;;;;;8.13;6.07;;;11.80;99.90;;;;;;5033295;28;20304;-65
2023/10/23 02:33:05;;;;;;;6.20;5.57;;;11.70;99.90;;;;;;5013310;28;20194;-65
2023/10/23 02:35:34;;;;;;;5.47;4.93;;;11.60;99.90;;;;;;5030676;28;20207;-65
2023/10/23 02:38:00;;;;;;;6.95;5.40;;;11.60;99.90;;;;;;5032239;28;20267;-65
2023/10/23 02:40:26;;;;;;;5.93;5.25;;;11.40;99.90;;;;;;5032488;28;20269;-65
2023/10/23 02:42:52;;;;;;;6.00;5.40;;;11.40;99.90;;;;;;5033322;28;20166;-65
2023/10/23 02:45:18;;;;;;;7.45;5.50;;;11.30;99.90;;;;;;5033380;28;20262;-65
2023/10/23 02:47:43;;;;;;;7.72;5.30;;;11.30;99.90;;;;;;5015663;28;20213;-64
2023/10/23 02:50:10;;;;;;;7.25;5.18;;;11.10;99.90;;;;;;5032105;28;20175;-65
2023/10/23 02:52:35;;;;;;;8.40;5.68;;;11.10;99.90;;;;;;5030957;28;20721;-65
2023/10/23 02:55:01;;;;;;;9.23;5.80;;;11.00;99.90;;;;;;5034497;28;20202;-66
2023/10/23 02:57:27;;;;;;;5.80;5.20;;;11.00;99.90;;;;;;5035322;28;20572;-65
2023/10/23 02:59:54;;;;;;;5.53;4.85;;;10.90;99.90;;;;;;5034708;28;20257;-64
2023/10/23 03:02:20;;;;;;;8.07;5.47;;;10.90;99.90;;;;;;5034870;28;20213;-63
2023/10/23 03:04:46;;;;;;;7.70;5.82;;;10.90;99.90;;;;;;5034874;28;20171;-64
2023/10/23 03:07:12;;;;;;;6.68;5.65;;;10.90;99.90;;;;;;5036973;28;20240;-64
2023/10/23 03:09:37;;;;;;;6.50;5.03;;;10.90;99.90;;;;;;5037319;28;20179;-64
2023/10/23 03:12:04;;;;;;;8.25;5.65;;;10.70;99.90;;;;;;5036937;28;20225;-64
2023/10/23 03:14:30;;;;;;;9.05;5.88;;;10.60;99.90;;;;;;5036551;28;20203;-64
2023/10/23 03:16:56;;;;;;;7.47;5.30;;;10.60;99.90;;;;;;5037146;28;20201;-64
2023/10/23 03:19:25;;;;;;;6.18;5.10;;;10.50;99.90;;;;;;5037265;28;20172;-64
2023/10/23 03:21:51;;;;;;;5.97;5.20;;;10.50;99.90;;;;;;5036712;28;20562;-64
2023/10/23 03:24:18;;;;;;;9.32;5.82;;;10.50;99.90;;;;;;5036765;28;20179;-64
2023/10/23 03:26:44;;;;;;;7.28;5.30;;;10.40;99.90;;;;;;5036679;28;20189;-64
2023/10/23 03:29:09;;;;;;;5.68;5.07;;;10.40;99.90;;;;;;5036208;28;20552;-64
2023/10/23 03:31:35;;;;;;;6.82;5.18;;;10.40;99.90;;;;;;5036522;28;20203;-64
2023/10/23 03:34:01;;;;;;;6.68;5.10;;;10.40;99.90;;;;;;5036453;28;20175;-64
2023/10/23 03:36:27;;;;;;;8.50;5.20;;;10.40;99.90;;;;;;5036849;28;20177;-64
2023/10/23 03:38:54;;;;;;;10.35;5.93;;;10.30;99.90;;;;;;5036957;28;20250;-64
2023/10/23 03:41:20;;;;;;;8.07;5.75;;;10.20;99.90;;;;;;5036386;28;20191;-64
2023/10/23 03:43:46;;;;;;;8.23;5.80;;;10.20;99.90;;;;;;5018881;28;20179;-64
2023/10/23 03:46:11;;;;;;;8.63;6.20;;;10.20;99.90;;;;;;5036689;28;20247;-64
2023/10/23 03:48:37;;;;;;;6.20;5.60;;;10.20;99.90;;;;;;5036192;28;20233;-63
2023/10/23 03:51:03;;;;;;;9.02;5.30;;;10.10;99.90;;;;;;5036562;28;20206;-64
2023/10/23 03:53:29;;;;;;;6.50;5.15;;;10.00;99.90;;;;;;5036092;28;20205;-64
2023/10/23 03:55:56;;;;;;;6.40;5.32;;;9.90;99.90;;;;;;5036046;28;20234;-64
2023/10/23 03:58:21;;;;;;;8.05;5.47;;;9.90;99.90;;;;;;5018086;28;20350;-64
2023/10/23 04:00:52;;;;;;;6.85;5.55;;;9.90;99.90;;;;;;5036211;28;20203;-64
2023/10/23 04:03:18;;;;;;;5.45;4.85;;;9.80;99.90;;;;;;5035935;28;20663;-64
2023/10/23 04:05:43;;;;;;;9.05;5.60;;;9.70;99.90;;;;;;5035394;28;20190;-64
2023/10/23 04:08:09;;;;;;;7.28;5.07;;;9.60;99.90;;;;;;5035830;28;20171;-64
2023/10/23 04:10:35;;;;;;;6.18;5.50;;;9.60;99.90;;;;;;5018086;28;20306;-65
2023/10/23 04:13:01;;;;;;;7.07;5.47;;;9.50;99.90;;;;;;5035784;28;20179;-65
2023/10/23 04:15:27;;;;;;;7.47;5.22;;;9.60;99.90;;;;;;5035494;28;20303;-65
2023/10/23 04:17:53;;;;;;;9.48;5.78;;;9.60;99.90;;;;;;5036138;28;20600;-64
2023/10/23 04:20:19;;;;;;;9.30;6.05;;;9.60;99.90;;;;;;5035953;28;20193;-64
2023/10/23 04:22:45;;;;;;;7.18;5.45;;;9.60;99.90;;;;;;5018015;28;20182;-64
2023/10/23 04:25:11;;;;;;;6.88;5.47;;;9.60;99.90;;;;;;5017867;28;20562;-64
2023/10/23 04:27:36;;;;;;;9.38;6.32;;;9.60;99.90;;;;;;5035525;28;20171;-64
2023/10/23 04:30:06;;;;;;;9.23;6.20;;;9.60;99.90;;;;;;5035155;28;20207;-64
2023/10/23 04:32:32;;;;;;;12.25;6.55;;;9.60;99.90;;;;;;5035321;28;20198;-65
2023/10/23 04:34:58;;;;;;;7.93;5.95;;;9.60;99.90;;;;;;5035770;28;20594;-65
2023/10/23 04:37:24;;;;;;;6.95;6.25;;;9.60;99.90;;;;;;5035345;28;20225;-64
2023/10/23 04:39:50;;;;;;;8.90;6.35;;;9.60;99.90;;;;;;5035346;28;20172;-65
2023/10/23 04:42:16;;;;;;;9.20;6.10;;;9.70;99.90;;;;;;5035277;28;20191;-65
2023/10/23 04:44:41;;;;;;;9.75;7.63;;;9.80;99.90;;;;;;5035009;28;20171;-64
2023/10/23 04:47:07;;;;;;;7.95;7.15;;;9.70;99.90;;;;;;5017333;28;20597;-65
2023/10/23 04:49:33;;;;;;;11.73;7.65;;;9.70;99.90;;;;;;5035364;28;20640;-65
2023/10/23 04:51:59;;;;;;;10.57;7.53;;;9.80;99.90;;;;;;5035034;28;20613;-64
2023/10/23 04:54:24;;;;;;;9.13;7.18;;;9.80;99.90;;;;;;5034983;28;20286;-64
2023/10/23 04:56:50;;;;;;;9.27;7.43;;;9.80;99.90;;;;;;5034896;28;20207;-64
2023/10/23 04:59:16;;;;;;;8.73;6.95;;;9.80;99.90;;;;;;5034584;28;20187;-64
2023/10/23 05:01:42;;;;;;;8.32;7.05;;;9.90;99.90;;;;;;5034736;28;20202;-64
2023/10/23 05:04:07;;;;;;;9.48;7.32;;;9.90;99.90;;;;;;5017093;28;20187;-64
2023/10/23 05:06:33;;;;;;;7.82;6.72;;;10.00;99.90;;;;;;5034835;28;20176;-64
2023/10/23 05:08:59;;;;;;;12.35;7.30;;;9.90;99.90;;;;;;5034557;28;20170;-65
2023/10/23 05:11:25;;;;;;;9.23;7.80;;;9.90;99.90;;;;;;5016646;28;20223;-64
2023/10/23 05:13:50;;;;;;;13.30;8.27;;;9.80;99.90;;;;;;5034439;28;20171;-64
2023/10/23 05:16:17;;;;;;;8.90;7.50;;;9.80;99.90;;;;;;5034218;28;20207;-65
2023/10/23 05:18:42;;;;;;;14.68;8.10;;;9.90;99.90;;;;;;5033495;28;20180;-64
2023/10/23 05:21:10;;;;;;;9.90;8.15;;;9.90;99.90;;;;;;5034231;28;20709;-64
2023/10/23 05:23:36;;;;;;;10.55;7.63;;;9.90;99.90;;;;;;5017286;28;20175;-64
2023/10/23 05:26:02;;;;;;;8.32;7.03;;;10.00;99.90;;;;;;5034281;28;20199;-65
2023/10/23 05:28:28;;;;;;;9.35;7.63;;;10.00;99.90;;;;;;5033854;28;20601;-64
2023/10/23 05:30:54;;;;;;;9.88;7.30;;;10.00;99.90;;;;;;5034054;28;20230;-64
2023/10/23 05:33:20;;;;;;;11.45;7.13;;;10.00;99.90;;;;;;5034118;28;20250;-64
2023/10/23 05:35:46;;;;;;;24.63;8.27;;;10.10;99.90;;;;;;5034308;28;20195;-64
2023/10/23 05:38:12;;;;;;;11.27;8.27;;;10.10;99.90;;;;;;5034018;28;20171;-64
2023/10/23 05:40:38;;;;;;;11.23;7.50;;;10.10;99.90;;;;;;5033919;28;20191;-64
2023/10/23 05:43:04;;;;;;;9.68;8.00;;;10.10;99.90;;;;;;5033902;28;20187;-64
2023/10/23 05:45:29;;;;;;;9.15;7.40;;;10.10;99.90;;;;;;5033642;28;20186;-64
2023/10/23 05:47:55;;;;;;;12.00;7.93;;;10.00;99.90;;;;;;5016092;28;20182;-64
2023/10/23 05:50:21;;;;;;;9.38;8.05;;;10.10;99.90;;;;;;5016198;28;20199;-64
2023/10/23 05:52:47;;;;;;;11.98;8.10;;;10.20;99.90;;;;;;5033800;28;20175;-64
2023/10/23 05:55:13;;;;;;;11.95;8.07;;;10.20;99.90;;;;;;5033646;28;20242;-64
2023/10/23 05:57:38;;;;;;;10.05;7.80;;;10.20;99.90;;;;;;5033674;28;20178;-64
2023/10/23 06:00:05;;;;;;;7.93;7.13;;;10.30;99.90;;;;;;5033277;28;20263;-64
2023/10/23 06:02:31;;;;;;;9.48;8.02;;;10.30;99.90;;;;;;5033843;28;20181;-65
2023/10/23 06:04:56;;;;;;;8.15;6.88;;;10.30;99.90;;;;;;5015820;28;20269;-64
2023/10/23 06:07:22;;;;;;;10.43;7.45;;;10.30;99.90;;;;;;5033804;28;20186;-65
2023/10/23 06:09:48;;;;;;;8.30;6.82;;;10.30;99.90;;;;;;5033487;28;20182;-64
2023/10/23 06:12:14;;;;;;;10.25;7.03;;;10.20;99.90;;;;;;5015648;28;20206;-64
2023/10/23 06:14:41;;;;;;;7.25;6.43;;;10.30;99.90;;;;;;5033086;28;20217;-64
2023/10/23 06:17:07;;;;;;;8.68;7.57;;;10.30;99.90;;;;;;5033018;28;20178;-64
2023/10/23 06:19:33;;;;;;;7.88;7.07;;;10.30;99.90;;;;;;5033052;28;20229;-64
2023/10/23 06:21:59;;;;;;;7.95;6.85;;;10.30;99.90;;;;;;5032804;28;20666;-64
2023/10/23 06:24:26;;;;;;;10.23;6.95;;;10.30;99.90;;;;;;5032948;28;20181;-65
2023/10/23 06:26:51;;;;;;;8.93;7.35;;;10.30;99.90;;;;;;5033080;28;20532;-64
2023/10/23 06:29:17;;;;;;;9.00;6.65;;;10.30;99.90;;;;;;5032614;28;20190;-64
2023/10/23 06:31:43;;;;;;;9.50;6.50;;;10.30;99.90;;;;;;5032706;28;20201;-64
2023/10/23 06:34:09;;;;;;;8.75;6.72;;;10.30;99.90;;;;;;5032730;28;20187;-64
2023/10/23 06:36:40;;;;;;;9.77;6.90;;;10.30;99.90;;;;;;5032730;28;20264;-64
2023/10/23 06:39:06;;;;;;;8.27;6.47;;;10.30;99.90;;;;;;5032853;28;20152;-64
2023/10/23 06:41:32;;;;;;;7.75;6.75;;;10.30;99.90;;;;;;5032736;28;20202;-65
2023/10/23 06:43:58;;;;;;;8.20;6.22;;;10.30;99.90;;;;;;5032478;28;20178;-64
2023/10/23 06:46:23;;;;;;;7.57;6.40;;;10.30;99.90;;;;;;5032674;28;20266;-64
2023/10/23 06:48:49;;;;;;;7.35;6.05;;;10.40;99.90;;;;;;5032726;28;20582;-64
2023/10/23 06:51:15;;;;;;;7.32;6.00;;;10.40;99.90;;;;;;5032649;28;20249;-64
2023/10/23 06:53:41;;;;;;;8.85;6.57;;;10.30;99.90;;;;;;5032627;28;20248;-64
2023/10/23 06:56:09;;;;;;;9.40;6.20;;;10.30;99.90;;;;;;5032631;28;20194;-64
2023/10/23 06:58:35;;;;;;;6.53;5.93;;;10.30;99.90;;;;;;5032489;28;20656;-64
2023/10/23 07:01:07;;;;;;;7.55;6.40;;;10.40;99.90;;;;;;5032169;28;20206;-65
2023/10/23 07:03:34;;;;;;;8.93;6.20;;;10.50;99.90;;;;;;5032509;28;20666;-64
2023/10/23 07:06:07;;;;;;;7.90;6.20;;;10.50;99.90;;;;;;5014921;28;20269;-64
2023/10/23 07:08:33;;;;;;;8.68;7.22;;;10.50;99.90;;;;;;5032806;28;20257;-64
2023/10/23 07:10:59;;;;;;;11.60;7.80;;;10.50;99.90;;;;;;5032560;28;20206;-65
2023/10/23 07:13:24;;;;;;;9.15;7.45;;;10.50;99.90;;;;;;5032502;28;20175;-64
2023/10/23 07:15:50;;;;;;;7.93;7.15;;;10.60;99.90;;;;;;5032139;28;20652;-65
2023/10/23 07:18:19;;;;;;;9.25;7.22;;;10.60;99.90;;;;;;5032394;28;20644;-65
2023/10/23 07:20:56;;;;;;;8.85;6.90;;;10.70;99.90;;;;;;5032198;28;20289;-64
2023/10/23 07:23:22;;;;;;;10.00;7.80;;;10.80;99.90;;;;;;5032389;28;20166;-65
2023/10/23 07:25:57;;;;;;;12.10;8.73;;;10.90;99.90;;;;;;5032287;28;20686;-64
2023/10/23 07:28:23;;;;;;;13.80;9.27;;;11.00;99.90;;;;;;5032699;28;20655;-64
2023/10/23 07:30:49;;;;;;;9.82;8.82;;;11.10;99.90;;;;;;5031999;28;20209;-64
2023/10/23 07:33:14;;;;;;;10.70;9.32;;;11.30;99.90;;;;;;5032719;28;20262;-64
2023/10/23 07:35:40;;;;;;;12.68;10.38;;;11.40;99.90;;;;;;5032243;28;20203;-65
2023/10/23 07:38:06;;;;;;;13.82;10.27;;;11.60;99.90;;;;;;5032526;28;20199;-65
2023/10/23 07:40:32;;;;;;;13.68;9.98;;;11.60;99.90;;;;;;5032944;28;20222;-65
2023/10/23 07:42:57;;;;;;;14.98;9.82;;;11.80;99.90;;;;;;5018745;28;20293;-65
2023/10/23 07:45:23;;;;;;;16.83;10.25;;;11.80;99.90;;;;;;5035860;28;20721;-64
2023/10/23 07:47:49;;;;;;;12.43;9.05;;;11.90;99.90;;;;;;5036085;28;20714;-65
2023/10/23 07:50:16;;;;;;;9.82;8.80;;;12.00;99.90;;;;;;5036027;28;20207;-65
2023/10/23 07:52:42;;;;;;;12.18;9.80;;;12.10;99.90;;;;;;5018226;28;20210;-65
2023/10/23 07:55:08;;;;;;;18.58;9.75;;;12.10;99.90;;;;;;5035861;28;20245;-65
2023/10/23 07:57:34;;;;;;;9.93;8.32;;;12.20;99.90;;;;;;5036080;28;20175;-65
2023/10/23 07:59:59;;;;;;;14.48;9.27;;;12.20;99.90;;;;;;5015938;28;20631;-65
2023/10/23 08:02:25;;;;;;;13.70;8.52;;;12.30;99.90;;;;;;5016194;28;20717;-65
2023/10/23 08:04:51;;;;;;;10.52;8.70;;;12.30;99.90;;;;;;5016558;28;20176;-65
2023/10/23 08:07:16;;;;;;;14.80;9.10;;;12.30;99.90;;;;;;5016616;28;20521;-65
2023/10/23 08:09:42;;;;;;;13.07;9.13;;;12.40;99.90;;;;;;5015970;28;20600;-65
2023/10/23 08:12:08;;;;;;;10.93;8.27;;;12.50;99.90;;;;;;5015782;28;20676;-65
2023/10/23 08:14:34;;;;;;;12.65;8.75;;;12.60;99.90;;;;;;5015656;28;20322;-65
2023/10/23 08:17:00;;;;;;;12.30;8.30;;;12.70;99.90;;;;;;5015844;28;20172;-65
2023/10/23 08:19:26;;;;;;;11.63;8.90;;;12.80;99.90;;;;;;5015748;28;20659;-65
2023/10/23 08:21:52;;;;;;;16.02;7.97;;;12.90;99.90;;;;;;5014457;28;20196;-65
2023/10/23 08:24:18;;;;;;;10.55;8.32;;;13.00;99.90;;;;;;5014335;28;20168;-65
2023/10/23 08:26:43;;;;;;;9.15;7.53;;;13.20;99.90;;;;;;5012918;28;20186;-65
2023/10/23 08:29:09;;;;;;;7.40;6.65;;;13.20;99.90;;;;;;5028300;28;20556;-65
2023/10/23 08:31:35;;;;;;;9.30;6.80;;;13.30;99.90;;;;;;5035542;28;20249;-65
2023/10/23 08:34:01;;;;;;;15.88;7.50;;;13.40;99.90;;;;;;5035418;28;20156;-65
2023/10/23 08:36:26;;;;;;;9.82;6.53;;;13.40;99.90;;;;;;5035266;28;20221;-65
2023/10/23 08:38:52;;;;;;;7.07;5.85;;;13.60;99.90;;;;;;5035263;28;20176;-65
2023/10/23 08:41:18;;;;;;;7.35;6.43;;;13.70;99.90;;;;;;5035284;28;20754;-65
2023/10/23 08:43:44;;;;;;;8.38;6.88;;;13.70;99.90;;;;;;5035100;28;20184;-65
2023/10/23 08:46:10;;;;;;;9.85;5.78;;;13.80;99.90;;;;;;5034854;28;20207;-65
2023/10/23 08:48:39;;;;;;;8.90;5.80;;;13.90;99.90;;;;;;5035050;28;20187;-65
2023/10/23 08:51:07;;;;;;;9.65;6.53;;;13.90;99.90;;;;;;5034766;28;20223;-65
2023/10/23 08:53:34;;;;;;;9.07;5.85;;;14.00;99.90;;;;;;5017133;28;20183;-65
2023/10/23 08:56:04;;;;;;;8.93;5.65;;;14.00;99.90;;;;;;5035047;28;20198;-65
2023/10/23 08:58:33;;;;;;;8.40;6.18;;;14.10;99.90;;;;;;5034794;28;20590;-65
2023/10/23 09:00:59;;;;;;;11.32;6.32;;;14.10;99.90;;;;;;5016568;28;20218;-65
2023/10/23 09:03:26;;;;;;;7.55;5.88;;;14.00;99.90;;;;;;5034959;28;20175;-65
2023/10/23 09:05:52;;;;;;;7.72;5.60;;;14.00;99.90;;;;;;5034733;28;20226;-65
2023/10/23 09:08:18;;;;;;;6.22;4.80;;;14.10;99.90;;;;;;5034966;28;20183;-65
2023/10/23 09:11:06;;;;;;;6.65;4.78;;;14.10;99.90;;;;;;5034685;28;20221;-65
2023/10/23 09:13:40;;;;;;;7.40;5.05;;;14.10;99.90;;;;;;5034615;28;20213;-65
2023/10/23 09:16:07;;;;;;;8.13;4.95;;;14.20;99.90;;;;;;5034150;28;20205;-65
2023/10/23 09:18:33;;;;;;;7.22;4.97;;;14.30;99.90;;;;;;5034727;28;20207;-65
2023/10/23 09:20:59;;;;;;;6.65;4.80;;;14.30;99.90;;;;;;5034372;28;20195;-65
2023/10/23 09:23:27;;;;;;;5.35;4.85;;;14.20;99.90;;;;;;5016631;28;20175;-65
2023/10/23 09:26:03;;;;;;;7.38;5.38;;;14.20;99.90;;;;;;5033833;28;20167;-65
2023/10/23 09:28:29;;;;;;;7.72;5.03;;;14.10;99.90;;;;;;5032798;28;20185;-65
2023/10/23 09:30:56;;;;;;;7.20;5.18;;;14.10;99.90;;;;;;5032603;28;20273;-65
2023/10/23 09:33:22;;;;;;;6.32;4.80;;;14.10;99.90;;;;;;5033995;28;20171;-65
2023/10/23 09:35:48;;;;;;;7.03;5.13;;;14.20;99.90;;;;;;5034076;28;20201;-65
2023/10/23 09:38:15;;;;;;;6.97;5.22;;;14.30;99.90;;;;;;5033837;28;20258;-65
2023/10/23 09:40:43;;;;;;;5.30;4.32;;;14.30;99.90;;;;;;5033950;28;20191;-65
2023/10/23 09:43:10;;;;;;;5.22;4.75;;;14.40;99.90;;;;;;5016234;28;20229;-65
2023/10/23 09:45:37;;;;;;;7.03;4.70;;;14.40;99.90;;;;;;5033746;28;20172;-65
2023/10/23 09:48:06;;;;;;;7.82;5.07;;;14.50;99.90;;;;;;5016140;28;20225;-65
2023/10/23 09:50:33;;;;;;;7.05;4.88;;;14.40;99.90;;;;;;5033742;28;20551;-65
2023/10/23 09:53:00;;;;;;;8.27;5.90;;;14.40;99.90;;;;;;5034430;28;20182;-65
2023/10/23 09:55:30;;;;;;;7.47;5.43;;;14.40;99.90;;;;;;5033694;28;20227;-65
2023/10/23 09:58:02;;;;;;;6.38;4.72;;;14.50;99.90;;;;;;5033660;28;20175;-65
2023/10/23 10:00:29;;;;;;;7.47;5.20;;;14.60;99.90;;;;;;5033243;28;20338;-65
2023/10/23 10:03:02;;;;;;;6.90;4.15;;;14.70;99.90;;;;;;5033855;28;20225;-65
2023/10/23 10:05:56;;;;;;;7.97;5.20;;;14.80;99.90;;;;;;5016469;28;20195;-65
2023/10/23 10:08:23;;;;;;;6.22;4.80;;;14.70;99.90;;;;;;5033840;28;20171;-65
2023/10/23 10:10:51;;;;;;;7.45;4.80;;;14.70;99.90;;;;;;5033490;28;20245;-65
2023/10/23 10:13:19;;;;;;;5.05;4.43;;;14.80;99.90;;;;;;5033473;28;20178;-65
2023/10/23 10:15:44;;;;;;;6.25;4.45;;;14.80;99.90;;;;;;5033088;28;20691;-65
2023/10/23 10:18:11;;;;;;;8.32;4.95;;;14.90;99.90;;;;;;5033911;28;20182;-65
2023/10/23 10:20:39;;;;;;;8.98;4.93;;;14.80;99.90;;;;;;5033873;28;20190;-65
2023/10/23 10:23:08;;;;;;;6.93;4.53;;;14.90;99.90;;;;;;5033629;28;20171;-65
2023/10/23 10:25:35;;;;;;;7.55;5.20;;;14.90;99.90;;;;;;5033596;28;20179;-65
2023/10/23 10:28:06;;;;;;;5.82;4.40;;;14.80;99.90;;;;;;5033213;28;20186;-65
2023/10/23 10:30:47;;;;;;;6.32;4.57;;;14.90;99.90;;;;;;5033059;28;20195;-65
2023/10/23 10:33:21;;;;;;;7.03;4.53;;;15.00;99.90;;;;;;5033252;28;20155;-66
2023/10/23 10:36:04;;;;;;;5.25;4.75;;;15.00;99.90;;;;;;5033737;28;20191;-65
2023/10/23 10:38:31;;;;;;;4.55;4.15;;;15.00;99.90;;;;;;5033229;28;20190;-65
2023/10/23 10:40:58;;;;;;;5.22;4.20;;;15.10;99.90;;;;;;5033075;28;20190;-65
2023/10/23 10:43:28;;;;;;;10.60;4.75;;;15.20;99.90;;;;;;5033091;28;20229;-65
2023/10/23 10:45:55;;;;;;;5.30;4.80;;;15.20;99.90;;;;;;5032871;28;20175;-65
2023/10/23 10:48:39;;;;;;;8.30;4.70;;;15.20;99.90;;;;;;5033367;28;20258;-65
2023/10/23 10:51:05;;;;;;;6.60;4.28;;;15.40;99.90;;;;;;5033015;28;20268;-65
2023/10/23 10:53:31;;;;;;;7.78;5.18;;;15.60;99.90;;;;;;5033028;28;20172;-65
2023/10/23 10:55:57;;;;;;;8.07;4.45;;;15.60;99.90;;;;;;5032914;28;20198;-65
2023/10/23 10:58:25;;;;;;;5.75;4.50;;;15.60;99.90;;;;;;5032950;28;20721;-65
2023/10/23 11:00:50;;;;;;;5.72;4.70;;;15.70;99.90;;;;;;5032422;28;20206;-65
2023/10/23 11:03:18;;;;;;;11.73;5.97;;;15.70;99.90;;;;;;5033184;28;20639;-65
2023/10/23 11:05:45;;;;;;;6.72;4.68;;;15.60;99.90;;;;;;5032912;28;20179;-65
2023/10/23 11:08:11;;;;;;;5.25;4.22;;;15.60;99.90;;;;;;5032841;28;20674;-65
2023/10/23 11:10:36;;;;;;;7.38;5.07;;;15.60;99.90;;;;;;5032857;28;20203;-65
2023/10/23 11:13:02;;;;;;;8.82;4.68;;;15.70;99.90;;;;;;5032803;28;20187;-65
2023/10/23 11:15:28;;;;;;;6.85;4.40;;;15.70;99.90;;;;;;5033136;28;20286;-66
2023/10/23 11:17:55;;;;;;;5.45;4.32;;;15.60;99.90;;;;;;5036686;28;20174;-65
2023/10/23 11:20:20;;;;;;;3.97;3.60;;;15.70;99.90;;;;;;5036559;28;20191;-65
2023/10/23 11:22:49;;;;;;;7.60;4.13;;;15.80;99.90;;;;;;5036921;28;20589;-65
2023/10/23 11:25:15;;;;;;;4.97;4.18;;;15.90;99.90;;;;;;5036547;28;20190;-66
2023/10/23 11:27:41;;;;;;;5.85;4.25;;;15.80;99.90;;;;;;5036728;28;20589;-65
2023/10/23 11:30:08;;;;;;;6.20;4.38;;;15.60;99.90;;;;;;5018380;28;20175;-65
2023/10/23 11:32:34;;;;;;;5.72;4.10;;;15.60;99.90;;;;;;5036428;28;20175;-65
2023/10/23 11:35:05;;;;;;;4.45;3.67;;;15.70;99.90;;;;;;5036627;28;20199;-66
2023/10/23 11:37:36;;;;;;;4.15;3.17;;;15.90;99.90;;;;;;5036632;28;20237;-65
2023/10/23 11:40:05;;;;;;;3.95;3.00;;;15.90;99.90;;;;;;5036207;28;20532;-65
2023/10/23 11:42:40;;;;;;;3.97;2.78;;;15.90;99.90;;;;;;5036317;28;20254;-65
2023/10/23 11:45:09;;;;;;;2.95;2.65;;;16.00;99.90;;;;;;5036177;28;20163;-65
2023/10/23 11:47:37;;;;;;;4.50;3.08;;;15.90;99.90;;;;;;5018409;28;20682;-65
2023/10/23 11:50:06;;;;;;;2.90;2.70;;;15.60;99.90;;;;;;5036011;28;20182;-65
2023/10/23 11:52:33;;;;;;;4.10;2.80;;;15.50;99.90;;;;;;5036350;28;20604;-65
2023/10/23 11:54:59;;;;;;;3.58;3.20;;;15.40;99.90;;;;;;5036291;28;20203;-65
2023/10/23 11:57:25;;;;;;;3.28;2.92;;;15.30;99.90;;;;;;5035971;28;20199;-65
2023/10/23 11:59:51;;;;;;;4.05;2.90;;;15.20;99.90;;;;;;5035634;28;20690;-66
2023/10/23 12:02:17;;;;;;;3.75;2.97;;;15.20;99.90;;;;;;5035777;28;20695;-65
2023/10/23 12:04:42;;;;;;;3.13;2.75;;;15.20;99.90;;;;;;5035832;28;20178;-65
2023/10/23 12:07:08;;;;;;;3.40;3.10;;;15.10;99.90;;;;;;5036077;28;20702;-65
2023/10/23 12:09:34;;;;;;;4.60;3.03;;;15.10;99.90;;;;;;5035691;28;20174;-65
2023/10/23 12:12:00;;;;;;;3.63;2.92;;;15.10;99.90;;;;;;5035985;28;20206;-65
2023/10/23 12:14:26;;;;;;;3.35;2.90;;;15.10;99.90;;;;;;5036136;28;20535;-65
2023/10/23 12:16:51;;;;;;;4.80;3.35;;;15.20;99.90;;;;;;5035357;28;20325;-65
2023/10/23 12:19:19;;;;;;;3.50;3.20;;;15.20;99.90;;;;;;5035571;28;20184;-65
2023/10/23 12:21:44;;;;;;;3.42;2.95;;;15.20;99.90;;;;;;5035535;28;20683;-65
2023/10/23 12:24:10;;;;;;;3.55;2.88;;;15.20;99.90;;;;;;5035469;28;20176;-65
2023/10/23 12:26:36;;;;;;;4.93;3.10;;;15.20;99.90;;;;;;5035241;28;20707;-65
2023/10/23 12:29:05;;;;;;;4.35;3.05;;;15.20;99.90;;;;;;5035300;28;20274;-65
2023/10/23 12:31:31;;;;;;;5.22;3.00;;;15.20;99.90;;;;;;5035060;28;20667;-65
2023/10/23 12:33:56;;;;;;;3.95;3.00;;;15.20;99.90;;;;;;5017569;28;20297;-65
2023/10/23 12:36:22;;;;;;;3.40;3.10;;;15.10;99.90;;;;;;5035445;28;20679;-65
2023/10/23 12:38:48;;;;;;;4.55;3.13;;;15.10;99.90;;;;;;5035253;28;20516;-65
2023/10/23 12:41:14;;;;;;;3.38;3.08;;;15.10;99.90;;;;;;5035372;28;20199;-65
2023/10/23 12:43:39;;;;;;;3.35;2.90;;;15.10;99.90;;;;;;5035135;28;20659;-65